Time;durP1;ratioP1;P1;durP2;ratioP2;P2;SDS_P1;SDS_P2;PMS_P1;PMS_P2;Temp;Humidity;BMP_temperature;BMP_pressure;BME280_temperature;BME280_humidity;BME280_pressure;Samples;Min_cycle;Max_cycle;Signal;HPM_P1;HPM_P2
2021/01/17 00:00:25;;;;;;;;;;;;;;;;;;5054301;28;822;-77
2021/01/17 00:02:51;;;;;;;;;;;;;;;;;;5054207;28;901;-75
2021/01/17 00:05:17;;;;;;;;;;;;;;;;;;5052993;28;1401;-78
2021/01/17 00:07:42;;;;;;;;;;;;;;;;;;5054462;28;920;-80
2021/01/17 00:10:09;;;;;;;;;;;;;;;;;;5054110;28;941;-78
2021/01/17 00:12:34;;;;;;;;;;;;;;;;;;5053138;28;1372;-77
2021/01/17 00:14:59;;;;;;;;;;;;;;;;;;5054089;28;2357;-76
2021/01/17 00:17:25;;;;;;;;;;;;;;;;;;5054247;28;968;-76
2021/01/17 00:19:50;;;;;;;;;;;;;;;;;;5054244;28;1142;-77
2021/01/17 00:22:19;;;;;;;;;;;;;;;;;;5054198;28;1012;-78
2021/01/17 00:24:44;;;;;;;;;;;;;;;;;;5054264;28;1290;-79
2021/01/17 00:27:11;;;;;;;;;;;;;;;;;;5054063;28;905;-78
2021/01/17 00:29:36;;;;;;;;;;;;;;;;;;5054112;28;836;-77
2021/01/17 00:32:01;;;;;;;;;;;;;;;;;;5054167;28;864;-76
2021/01/17 00:34:27;;;;;;;;;;;;;;;;;;5053896;28;1894;-76
2021/01/17 00:36:52;;;;;;;;;;;;;;;;;;5054071;28;869;-76
2021/01/17 00:39:17;;;;;;;;;;;;;;;;;;5052834;28;1367;-78
2021/01/17 00:41:42;;;;;;;;;;;;;;;;;;5052723;28;813;-79
2021/01/17 00:44:07;;;;;;;;;;;;;;;;;;5053086;28;896;-79
2021/01/17 00:46:39;;;;;;;;;;;;;;;;;;5053778;28;1389;-79
2021/01/17 00:49:04;;;;;;;;;;;;;;;;;;5053971;28;801;-78
2021/01/17 00:51:37;;;;;;;;;;;;;;;;;;5051794;28;1637;-78
2021/01/17 00:54:02;;;;;;;;;;;;;;;;;;5053947;28;1947;-78
2021/01/17 00:56:27;;;;;;;;;;;;;;;;;;5053714;28;1286;-79
2021/01/17 00:58:53;;;;;;;;;;;;;;;;;;5052610;28;1468;-76
2021/01/17 01:01:18;;;;;;;;;;;;;;;;;;5052426;28;1251;-78
2021/01/17 01:03:43;;;;;;;;;;;;;;;;;;5053801;28;900;-76
2021/01/17 01:06:15;;;;;;;;;;;;;;;;;;5052276;28;1432;-78
2021/01/17 01:08:41;;;;;;;;;;;;;;;;;;5052504;28;1198;-77
2021/01/17 01:11:06;;;;;;;;;;;;;;;;;;5053412;28;901;-80
2021/01/17 01:13:31;;;;;;;;;;;;;;;;;;5053718;28;859;-79
2021/01/17 01:15:56;;;;;;;;;;;;;;;;;;5053352;28;1957;-79
2021/01/17 01:18:21;;;;;;;;;;;;;;;;;;5053003;28;1211;-78
2021/01/17 01:20:47;;;;;;;;;;;;;;;;;;5052703;28;857;-77
2021/01/17 01:23:12;;;;;;;;;;;;;;;;;;5054154;28;924;-75
2021/01/17 01:25:37;;;;;;;;;;;;;;;;;;5054155;28;1322;-75
2021/01/17 01:28:02;;;;;;;;;;;;;;;;;;5054101;28;900;-74
2021/01/17 01:30:28;;;;;;;;;;;;;;;;;;5052593;28;1428;-72
2021/01/17 01:32:53;;;;;;;;;;;;;;;;;;5053834;28;1059;-74
2021/01/17 01:35:18;;;;;;;;;;;;;;;;;;5053884;28;1910;-73
2021/01/17 01:37:43;;;;;;;;;;;;;;;;;;5054051;28;798;-71
2021/01/17 01:40:09;;;;;;;;;;;;;;;;;;5053794;28;1048;-72
2021/01/17 01:42:34;;;;;;;;;;;;;;;;;;5054006;28;956;-74
2021/01/17 01:44:59;;;;;;;;;;;;;;;;;;5053931;28;1278;-75
2021/01/17 01:47:25;;;;;;;;;;;;;;;;;;5053701;28;1027;-73
2021/01/17 01:49:52;;;;;;;;;;;;;;;;;;5052321;28;1394;-73
2021/01/17 01:52:17;;;;;;;;;;;;;;;;;;5054138;28;809;-71
2021/01/17 01:54:42;;;;;;;;;;;;;;;;;;5053788;28;1898;-74
2021/01/17 01:57:08;;;;;;;;;;;;;;;;;;5052699;28;1373;-71
2021/01/17 01:59:33;;;;;;;;;;;;;;;;;;5053636;28;931;-74
2021/01/17 02:02:04;;;;;;;;;;;;;;;;;;5055915;28;1024;-71
2021/01/17 02:04:29;;;;;;;;;;;;;;;;;;5057330;28;1310;-73
2021/01/17 02:07:19;;;;;;;;;;;;;;;;;;5057300;28;987;-72
2021/01/17 02:09:44;;;;;;;;;;;;;;;;;;5057111;28;942;-75
2021/01/17 02:12:13;;;;;;;;;;;;;;;;;;5056087;28;1351;-71
2021/01/17 02:14:38;;;;;;;;;;;;;;;;;;5057074;28;1898;-74
2021/01/17 02:17:08;;;;;;;;;;;;;;;;;;5057352;28;924;-72
2021/01/17 02:19:37;;;;;;;;;;;;;;;;;;5055724;28;1207;-72
2021/01/17 02:22:03;;;;;;;;;;;;;;;;;;5057065;28;789;-74
2021/01/17 02:24:37;;;;;;;;;;;;;;;;;;5057034;28;1451;-73
2021/01/17 02:27:02;;;;;;;;;;;;;;;;;;5057128;28;951;-73
2021/01/17 02:29:28;;;;;;;;;;;;;;;;;;5056018;28;987;-75
2021/01/17 02:31:57;;;;;;;;;;;;;;;;;;5055428;28;1937;-74
2021/01/17 02:34:24;;;;;;;;;;;;;;;;;;5055645;28;1889;-75
2021/01/17 02:37:01;;;;;;;;;;;;;;;;;;5056796;28;912;-73
2021/01/17 02:39:49;;;;;;;;;;;;;;;;;;5056747;28;945;-72
2021/01/17 02:42:14;;;;;;;;;;;;;;;;;;5056751;28;1194;-74
2021/01/17 02:44:41;;;;;;;;;;;;;;;;;;5055575;28;1270;-73
2021/01/17 02:47:06;;;;;;;;;;;;;;;;;;5056555;28;932;-75
2021/01/17 02:49:32;;;;;;;;;;;;;;;;;;5056649;28;913;-73
2021/01/17 02:51:58;;;;;;;;;;;;;;;;;;5055411;28;878;-72
2021/01/17 02:54:33;;;;;;;;;;;;;;;;;;5055383;28;1967;-73
2021/01/17 02:57:05;;;;;;;;;;;;;;;;;;5056265;28;875;-75
2021/01/17 02:59:36;;;;;;;;;;;;;;;;;;5056469;28;936;-74
2021/01/17 03:02:03;;;;;;;;;;;;;;;;;;5056465;28;916;-74
2021/01/17 03:04:31;;;;;;;;;;;;;;;;;;5056265;28;1302;-72
2021/01/17 03:06:58;;;;;;;;;;;;;;;;;;5056176;28;875;-72
2021/01/17 03:09:23;;;;;;;;;;;;;;;;;;5056166;28;829;-73
2021/01/17 03:11:48;;;;;;;;;;;;;;;;;;5055862;28;810;-73
2021/01/17 03:14:15;;;;;;;;;;;;;;;;;;5055619;28;1897;-72
2021/01/17 03:16:40;;;;;;;;;;;;;;;;;;5055850;28;1329;-75
2021/01/17 03:19:05;;;;;;;;;;;;;;;;;;5056108;28;831;-74
2021/01/17 03:21:30;;;;;;;;;;;;;;;;;;5055554;28;1196;-72
2021/01/17 03:23:56;;;;;;;;;;;;;;;;;;5054697;28;1183;-74
2021/01/17 03:26:21;;;;;;;;;;;;;;;;;;5055993;28;1291;-75
2021/01/17 03:28:47;;;;;;;;;;;;;;;;;;5054360;28;1226;-73
2021/01/17 03:31:12;;;;;;;;;;;;;;;;;;5055603;28;874;-72
2021/01/17 03:33:37;;;;;;;;;;;;;;;;;;5055640;28;886;-73
2021/01/17 03:36:03;;;;;;;;;;;;;;;;;;5054217;28;1910;-72
2021/01/17 03:38:28;;;;;;;;;;;;;;;;;;5054133;28;830;-73
2021/01/17 03:40:53;;;;;;;;;;;;;;;;;;5054238;28;1356;-74
2021/01/17 03:43:18;;;;;;;;;;;;;;;;;;5055483;28;867;-75
2021/01/17 03:45:44;;;;;;;;;;;;;;;;;;5054431;28;1373;-71
2021/01/17 03:48:09;;;;;;;;;;;;;;;;;;5055193;28;812;-72
2021/01/17 03:50:34;;;;;;;;;;;;;;;;;;5055294;28;858;-71
2021/01/17 03:52:59;;;;;;;;;;;;;;;;;;5055397;28;847;-75
2021/01/17 03:55:25;;;;;;;;;;;;;;;;;;5055254;28;1895;-74
2021/01/17 03:57:50;;;;;;;;;;;;;;;;;;5054006;28;1375;-74
2021/01/17 04:00:15;;;;;;;;;;;;;;;;;;5055171;28;872;-74
2021/01/17 04:02:40;;;;;;;;;;;;;;;;;;5055023;28;880;-73
2021/01/17 04:05:06;;;;;;;;;;;;;;;;;;5055209;28;1369;-75
2021/01/17 04:07:31;;;;;;;;;;;;;;;;;;5055129;28;933;-74
2021/01/17 04:09:56;;;;;;;;;;;;;;;;;;5054643;28;912;-75
2021/01/17 04:12:22;;;;;;;;;;;;;;;;;;5037312;28;1206;-75
2021/01/17 04:14:47;;;;;;;;;;;;;;;;;;5054837;28;1878;-74
2021/01/17 04:17:12;;;;;;;;;;;;;;;;;;5053665;28;845;-73
2021/01/17 04:19:37;;;;;;;;;;;;;;;;;;5054870;28;892;-71
2021/01/17 04:22:03;;;;;;;;;;;;;;;;;;5055124;28;956;-73
2021/01/17 04:24:28;;;;;;;;;;;;;;;;;;5053865;28;1400;-75
2021/01/17 04:26:57;;;;;;;;;;;;;;;;;;5054878;28;805;-73
2021/01/17 04:29:22;;;;;;;;;;;;;;;;;;5054754;28;884;-74
2021/01/17 04:31:47;;;;;;;;;;;;;;;;;;5054652;28;818;-72
2021/01/17 04:34:13;;;;;;;;;;;;;;;;;;5054635;28;1969;-75
2021/01/17 04:36:38;;;;;;;;;;;;;;;;;;5054608;28;1333;-72
2021/01/17 04:39:04;;;;;;;;;;;;;;;;;;5054532;28;948;-73
2021/01/17 04:41:30;;;;;;;;;;;;;;;;;;5053215;28;1634;-75
2021/01/17 04:43:56;;;;;;;;;;;;;;;;;;5054734;28;885;-72
2021/01/17 04:46:22;;;;;;;;;;;;;;;;;;5054358;28;1353;-73
2021/01/17 04:48:51;;;;;;;;;;;;;;;;;;5053585;28;952;-73
2021/01/17 04:51:17;;;;;;;;;;;;;;;;;;5054137;28;838;-75
2021/01/17 04:53:43;;;;;;;;;;;;;;;;;;5054753;28;889;-72
2021/01/17 04:56:15;;;;;;;;;;;;;;;;;;5054332;28;1898;-72
2021/01/17 04:58:43;;;;;;;;;;;;;;;;;;5054618;28;866;-72
2021/01/17 05:01:14;;;;;;;;;;;;;;;;;;5054222;28;874;-74
2021/01/17 05:03:42;;;;;;;;;;;;;;;;;;5053239;28;833;-72
2021/01/17 05:06:10;;;;;;;;;;;;;;;;;;5054317;28;1302;-74
2021/01/17 05:08:39;;;;;;;;;;;;;;;;;;5053161;28;1501;-73
2021/01/17 05:11:06;;;;;;;;;;;;;;;;;;5052670;28;842;-74
2021/01/17 05:13:33;;;;;;;;;;;;;;;;;;5054409;28;883;-74
2021/01/17 05:16:02;;;;;;;;;;;;;;;;;;5053963;28;1910;-75
2021/01/17 05:18:29;;;;;;;;;;;;;;;;;;5053169;28;1202;-72
2021/01/17 05:20:56;;;;;;;;;;;;;;;;;;5052840;28;1348;-74
2021/01/17 05:23:21;;;;;;;;;;;;;;;;;;5053218;28;1206;-75
2021/01/17 05:25:48;;;;;;;;;;;;;;;;;;5053956;28;1325;-72
2021/01/17 05:28:13;;;;;;;;;;;;;;;;;;5053110;28;1110;-75
2021/01/17 05:30:43;;;;;;;;;;;;;;;;;;5054009;28;909;-72
2021/01/17 05:33:09;;;;;;;;;;;;;;;;;;5054081;28;940;-74
2021/01/17 05:35:35;;;;;;;;;;;;;;;;;;5052842;28;1973;-74
2021/01/17 05:38:00;;;;;;;;;;;;;;;;;;5056584;28;1399;-72
2021/01/17 05:40:25;;;;;;;;;;;;;;;;;;5056283;28;1292;-75
2021/01/17 05:42:50;;;;;;;;;;;;;;;;;;5057869;28;936;-73
2021/01/17 05:45:16;;;;;;;;;;;;;;;;;;5056510;28;1274;-75
2021/01/17 05:47:42;;;;;;;;;;;;;;;;;;5057823;28;947;-74
2021/01/17 05:50:11;;;;;;;;;;;;;;;;;;5056043;28;2418;-71
2021/01/17 05:52:37;;;;;;;;;;;;;;;;;;5057586;28;1206;-72
2021/01/17 05:55:03;;;;;;;;;;;;;;;;;;5057632;28;1898;-72
2021/01/17 05:57:30;;;;;;;;;;;;;;;;;;5057514;28;1019;-72
2021/01/17 05:59:56;;;;;;;;;;;;;;;;;;5057216;28;901;-71
2021/01/17 06:02:22;;;;;;;;;;;;;;;;;;5057445;28;937;-73
2021/01/17 06:04:48;;;;;;;;;;;;;;;;;;5057681;28;1294;-72
2021/01/17 06:07:14;;;;;;;;;;;;;;;;;;5057370;28;921;-74
2021/01/17 06:09:41;;;;;;;;;;;;;;;;;;5057163;28;895;-72
2021/01/17 06:12:06;;;;;;;;;;;;;;;;;;5057254;28;971;-72
2021/01/17 06:14:32;;;;;;;;;;;;;;;;;;5057053;28;1902;-72
2021/01/17 06:16:59;;;;;;;;;;;;;;;;;;5057257;28;896;-72
2021/01/17 06:19:34;;;;;;;;;;;;;;;;;;5057296;28;797;-73
2021/01/17 06:22:00;;;;;;;;;;;;;;;;;;5057377;28;829;-75
2021/01/17 06:24:36;;;;;;;;;;;;;;;;;;5055671;28;1444;-74
2021/01/17 06:27:02;;;;;;;;;;;;;;;;;;5055824;28;1238;-72
2021/01/17 06:29:34;;;;;;;;;;;;;;;;;;5056758;28;873;-74
2021/01/17 06:32:19;;;;;;;;;;;;;;;;;;5057269;28;1338;-73
2021/01/17 06:34:54;;;;;;;;;;;;;;;;;;5056832;28;1902;-73
2021/01/17 06:37:24;;;;;;;;;;;;;;;;;;5055308;28;845;-72
2021/01/17 06:39:51;;;;;;;;;;;;;;;;;;5056622;28;896;-75
2021/01/17 06:42:17;;;;;;;;;;;;;;;;;;5056917;28;889;-75
2021/01/17 06:44:43;;;;;;;;;;;;;;;;;;5055252;28;1416;-74
2021/01/17 06:47:17;;;;;;;;;;;;;;;;;;5055230;28;1108;-72
2021/01/17 06:49:43;;;;;;;;;;;;;;;;;;5056184;28;830;-75
2021/01/17 06:52:09;;;;;;;;;;;;;;;;;;5056382;28;961;-73
2021/01/17 06:54:38;;;;;;;;;;;;;;;;;;5055086;28;1973;-72
2021/01/17 06:57:04;;;;;;;;;;;;;;;;;;5055300;28;825;-72
2021/01/17 06:59:43;;;;;;;;;;;;;;;;;;5056533;28;877;-74
2021/01/17 07:02:17;;;;;;;;;;;;;;;;;;5056352;28;905;-74
2021/01/17 07:04:51;;;;;;;;;;;;;;;;;;5056043;28;1406;-74
2021/01/17 07:07:40;;;;;;;;;;;;;;;;;;5056159;28;996;-74
2021/01/17 07:10:06;;;;;;;;;;;;;;;;;;5054567;28;1552;-73
2021/01/17 07:12:50;;;;;;;;;;;;;;;;;;5055229;28;1007;-75
2021/01/17 07:15:19;;;;;;;;;;;;;;;;;;5056083;28;1979;-74
2021/01/17 07:17:44;;;;;;;;;;;;;;;;;;5055783;28;952;-74
2021/01/17 07:20:11;;;;;;;;;;;;;;;;;;5056037;28;897;-74
2021/01/17 07:22:37;;;;;;;;;;;;;;;;;;5056158;28;909;-74
2021/01/17 07:25:04;;;;;;;;;;;;;;;;;;5054556;28;1432;-74
2021/01/17 07:27:48;;;;;;;;;;;;;;;;;;5055632;28;1189;-74
2021/01/17 07:30:18;;;;;;;;;;;;;;;;;;5055813;28;968;-74
2021/01/17 07:32:52;;;;;;;;;;;;;;;;;;5055813;28;871;-74
2021/01/17 07:35:23;;;;;;;;;;;;;;;;;;5055578;28;1901;-73
2021/01/17 07:37:52;;;;;;;;;;;;;;;;;;5054076;28;1224;-74
2021/01/17 07:40:48;;;;;;;;;;;;;;;;;;5055553;28;1011;-76
2021/01/17 07:43:06;;;;;;;;;;;;;;;;;;5055501;28;1195;-74
2021/01/17 07:45:36;;;;;;;;;;;;;;;;;;5055351;28;1365;-74
2021/01/17 07:48:05;;;;;;;;;;;;;;;;;;5055568;28;1008;-73
2021/01/17 07:50:34;;;;;;;;;;;;;;;;;;5055325;28;952;-74
2021/01/17 07:53:01;;;;;;;;;;;;;;;;;;5053966;28;1191;-75
2021/01/17 07:55:27;;;;;;;;;;;;;;;;;;5055272;28;1932;-72
2021/01/17 07:57:52;;;;;;;;;;;;;;;;;;5055264;28;870;-72
2021/01/17 08:00:23;;;;;;;;;;;;;;;;;;5053844;28;1321;-73
2021/01/17 08:02:49;;;;;;;;;;;;;;;;;;5055154;28;908;-72
2021/01/17 08:05:14;;;;;;;;;;;;;;;;;;5053763;28;1436;-75
2021/01/17 08:07:40;;;;;;;;;;;;;;;;;;5055283;28;861;-73
2021/01/17 08:10:06;;;;;;;;;;;;;;;;;;5054896;28;877;-73
2021/01/17 08:12:36;;;;;;;;;;;;;;;;;;5055142;28;1231;-73
2021/01/17 08:15:17;;;;;;;;;;;;;;;;;;5054808;28;1961;-75
2021/01/17 08:17:43;;;;;;;;;;;;;;;;;;5054786;28;962;-74
2021/01/17 08:20:08;;;;;;;;;;;;;;;;;;5053545;28;807;-72
2021/01/17 08:22:33;;;;;;;;;;;;;;;;;;5053645;28;1390;-75
2021/01/17 08:25:00;;;;;;;;;;;;;;;;;;5054890;28;1286;-73
2021/01/17 08:27:32;;;;;;;;;;;;;;;;;;5053444;28;1484;-72
2021/01/17 08:30:00;;;;;;;;;;;;;;;;;;5054661;28;877;-72
2021/01/17 08:32:34;;;;;;;;;;;;;;;;;;5054808;28;833;-72
2021/01/17 08:35:20;;;;;;;;;;;;;;;;;;5054666;28;1993;-72
2021/01/17 08:37:45;;;;;;;;;;;;;;;;;;5054530;28;1153;-73
2021/01/17 08:40:14;;;;;;;;;;;;;;;;;;5053315;28;858;-72
2021/01/17 08:42:47;;;;;;;;;;;;;;;;;;5054695;28;833;-73
2021/01/17 08:45:19;;;;;;;;;;;;;;;;;;5053193;28;1366;-73
2021/01/17 08:47:44;;;;;;;;;;;;;;;;;;5053512;28;1008;-75
2021/01/17 08:50:25;;;;;;;;;;;;;;;;;;5054087;28;920;-73
2021/01/17 08:52:51;;;;;;;;;;;;;;;;;;5054306;28;1090;-73
2021/01/17 08:55:34;;;;;;;;;;;;;;;;;;5054246;28;2016;-72
2021/01/17 08:57:59;;;;;;;;;;;;;;;;;;5054322;28;912;-71
2021/01/17 09:00:44;;;;;;;;;;;;;;;;;;5054375;28;1046;-75
2021/01/17 09:03:23;;;;;;;;;;;;;;;;;;5054524;28;1603;-73
2021/01/17 09:05:49;;;;;;;;;;;;;;;;;;5054293;28;1289;-72
2021/01/17 09:08:15;;;;;;;;;;;;;;;;;;5054348;28;952;-76
2021/01/17 09:10:40;;;;;;;;;;;;;;;;;;5053453;28;1132;-73
2021/01/17 09:13:05;;;;;;;;;;;;;;;;;;5057021;28;1271;-73
2021/01/17 09:15:33;;;;;;;;;;;;;;;;;;5056890;28;1894;-75
2021/01/17 09:18:00;;;;;;;;;;;;;;;;;;5058354;28;957;-73
2021/01/17 09:20:26;;;;;;;;;;;;;;;;;;5058173;28;838;-72
2021/01/17 09:22:52;;;;;;;;;;;;;;;;;;5058010;28;853;-72
2021/01/17 09:25:18;;;;;;;;;;;;;;;;;;5058053;28;1353;-74
2021/01/17 09:27:43;;;;;;;;;;;;;;;;;;5058312;28;900;-74
2021/01/17 09:30:10;;;;;;;;;;;;;;;;;;5056771;28;834;-72
2021/01/17 09:32:36;;;;;;;;;;;;;;;;;;5058089;28;936;-75
2021/01/17 09:35:05;;;;;;;;;;;;;;;;;;5039742;28;1905;-75
2021/01/17 09:37:32;;;;;;;;;;;;;;;;;;5058078;28;862;-74
2021/01/17 09:39:57;;;;;;;;;;;;;;;;;;5057906;28;849;-73
2021/01/17 09:42:24;;;;;;;;;;;;;;;;;;5058055;28;921;-75
2021/01/17 09:44:50;;;;;;;;;;;;;;;;;;5057663;28;1282;-75
2021/01/17 09:47:20;;;;;;;;;;;;;;;;;;5057766;28;856;-74
2021/01/17 09:49:46;;;;;;;;;;;;;;;;;;5056501;28;817;-74
2021/01/17 09:52:15;;;;;;;;;;;;;;;;;;5057773;28;899;-76
2021/01/17 09:54:40;;;;;;;;;;;;;;;;;;5056267;28;1969;-73
2021/01/17 09:57:16;;;;;;;;;;;;;;;;;;5056425;28;1315;-76
2021/01/17 09:59:41;;;;;;;;;;;;;;;;;;5057213;28;868;-76
2021/01/17 10:02:09;;;;;;;;;;;;;;;;;;5057757;28;865;-73
2021/01/17 10:04:34;;;;;;;;;;;;;;;;;;5057635;28;1302;-73
2021/01/17 10:07:00;;;;;;;;;;;;;;;;;;5057386;28;885;-74
2021/01/17 10:09:26;;;;;;;;;;;;;;;;;;5057293;28;845;-74
2021/01/17 10:11:59;;;;;;;;;;;;;;;;;;5057123;28;865;-74
2021/01/17 10:14:25;;;;;;;;;;;;;;;;;;5055926;28;1893;-70
2021/01/17 10:16:54;;;;;;;;;;;;;;;;;;5055978;28;1354;-74
2021/01/17 10:19:25;;;;;;;;;;;;;;;;;;5056113;28;1200;-76
2021/01/17 10:21:51;;;;;;;;;;;;;;;;;;5055564;28;1300;-73
2021/01/17 10:24:20;;;;;;;;;;;;;;;;;;5055901;28;1434;-72
2021/01/17 10:26:48;;;;;;;;;;;;;;;;;;5055672;28;1889;-74
2021/01/17 10:29:13;;;;;;;;;;;;;;;;;;5057013;28;971;-75
2021/01/17 10:31:39;;;;;;;;;;;;;;;;;;5055485;28;1217;-76
2021/01/17 10:34:04;;;;;;;;;;;;;;;;;;5056949;28;1006;-73
2021/01/17 10:36:29;;;;;;;;;;;;;;;;;;5056815;28;1898;-73
2021/01/17 10:38:55;;;;;;;;;;;;;;;;;;5056813;28;881;-76
2021/01/17 10:41:24;;;;;;;;;;;;;;;;;;5056518;28;961;-73
2021/01/17 10:43:56;;;;;;;;;;;;;;;;;;5056586;28;897;-72
2021/01/17 10:46:24;;;;;;;;;;;;;;;;;;5055040;28;1428;-74
2021/01/17 10:48:59;;;;;;;;;;;;;;;;;;5055374;28;837;-71
2021/01/17 10:51:50;;;;;;;;;;;;;;;;;;5055387;28;964;-72
2021/01/17 10:54:23;;;;;;;;;;;;;;;;;;5056801;28;1882;-69
2021/01/17 10:56:49;;;;;;;;;;;;;;;;;;5056440;28;1350;-70
2021/01/17 10:59:16;;;;;;;;;;;;;;;;;;5056495;28;1066;-72
2021/01/17 11:01:46;;;;;;;;;;;;;;;;;;5054971;28;1222;-74
2021/01/17 11:04:13;;;;;;;;;;;;;;;;;;5056272;28;877;-72
2021/01/17 11:06:38;;;;;;;;;;;;;;;;;;5055973;28;1416;-72
2021/01/17 11:09:10;;;;;;;;;;;;;;;;;;5055109;28;1399;-72
2021/01/17 11:11:41;;;;;;;;;;;;;;;;;;5056213;28;916;-75
2021/01/17 11:14:06;;;;;;;;;;;;;;;;;;5056383;28;1953;-72
2021/01/17 11:16:33;;;;;;;;;;;;;;;;;;5055886;28;1455;-72
2021/01/17 11:18:58;;;;;;;;;;;;;;;;;;5056175;28;1387;-75
2021/01/17 11:21:24;;;;;;;;;;;;;;;;;;5056023;28;826;-73
2021/01/17 11:23:52;;;;;;;;;;;;;;;;;;5054764;28;1323;-76
2021/01/17 11:26:21;;;;;;;;;;;;;;;;;;5055921;28;1351;-75
2021/01/17 11:28:49;;;;;;;;;;;;;;;;;;5054468;28;1242;-72
2021/01/17 11:31:16;;;;;;;;;;;;;;;;;;5055836;28;864;-75
2021/01/17 11:33:41;;;;;;;;;;;;;;;;;;5055337;28;883;-75
2021/01/17 11:36:07;;;;;;;;;;;;;;;;;;5054418;28;1959;-76
2021/01/17 11:38:43;;;;;;;;;;;;;;;;;;5055730;28;890;-72
2021/01/17 11:41:08;;;;;;;;;;;;;;;;;;5054255;28;1211;-72
2021/01/17 11:43:33;;;;;;;;;;;;;;;;;;5054413;28;860;-71
2021/01/17 11:46:03;;;;;;;;;;;;;;;;;;5054147;28;1352;-75
2021/01/17 11:48:31;;;;;;;;;;;;;;;;;;5055622;28;959;-72
2021/01/17 11:50:57;;;;;;;;;;;;;;;;;;5055304;28;888;-73
2021/01/17 11:53:25;;;;;;;;;;;;;;;;;;5055460;28;912;-73
2021/01/17 11:55:50;;;;;;;;;;;;;;;;;;5055286;28;1898;-74
2021/01/17 11:58:16;;;;;;;;;;;;;;;;;;5055420;28;807;-72
2021/01/17 12:00:47;;;;;;;;;;;;;;;;;;5055044;28;905;-73
2021/01/17 12:03:31;;;;;;;;;;;;;;;;;;5055293;28;892;-72
2021/01/17 12:06:09;;;;;;;;;;;;;;;;;;5053565;28;1290;-76
2021/01/17 12:08:49;;;;;;;;;;;;;;;;;;5053878;28;1407;-72
2021/01/17 12:11:30;;;;;;;;;;;;;;;;;;5055133;28;847;-72
2021/01/17 12:13:55;;;;;;;;;;;;;;;;;;5055126;28;963;-74
2021/01/17 12:16:46;;;;;;;;;;;;;;;;;;5054776;28;1880;-75
2021/01/17 12:19:12;;;;;;;;;;;;;;;;;;5055670;28;1718;-75
2021/01/17 12:21:38;;;;;;;;;;;;;;;;;;5054931;28;806;-73
2021/01/17 12:24:04;;;;;;;;;;;;;;;;;;5055066;28;829;-73
2021/01/17 12:26:30;;;;;;;;;;;;;;;;;;5054935;28;1385;-75
2021/01/17 12:28:55;;;;;;;;;;;;;;;;;;5054872;28;905;-72
2021/01/17 12:31:22;;;;;;;;;;;;;;;;;;5053114;28;1218;-69
2021/01/17 12:33:47;;;;;;;;;;;;;;;;;;5053432;28;1401;-69
2021/01/17 12:36:14;;;;;;;;;;;;;;;;;;5053215;28;1906;-71
2021/01/17 12:38:41;;;;;;;;;;;;;;;;;;5054897;28;834;-70
2021/01/17 12:41:06;;;;;;;;;;;;;;;;;;5053039;28;1433;-70
2021/01/17 12:43:32;;;;;;;;;;;;;;;;;;5053420;28;1223;-73
2021/01/17 12:45:57;;;;;;;;;;;;;;;;;;5052651;28;1341;-72
2021/01/17 12:48:22;;;;;;;;;;;;;;;;;;5054610;28;916;-72
2021/01/17 12:50:47;;;;;;;;;;;;;;;;;;5054377;28;866;-70
2021/01/17 12:53:13;;;;;;;;;;;;;;;;;;5052929;28;946;-70
2021/01/17 12:55:38;;;;;;;;;;;;;;;;;;5053020;28;1911;-71
2021/01/17 12:58:06;;;;;;;;;;;;;;;;;;5054722;28;853;-72
2021/01/17 13:00:31;;;;;;;;;;;;;;;;;;5053497;28;1242;-72
2021/01/17 13:02:56;;;;;;;;;;;;;;;;;;5054509;28;1184;-72
2021/01/17 13:05:21;;;;;;;;;;;;;;;;;;5054371;28;1306;-72
2021/01/17 13:07:46;;;;;;;;;;;;;;;;;;5054130;28;897;-73
2021/01/17 13:10:12;;;;;;;;;;;;;;;;;;5053078;28;1254;-71
2021/01/17 13:12:37;;;;;;;;;;;;;;;;;;5054444;28;908;-69
2021/01/17 13:15:02;;;;;;;;;;;;;;;;;;5053010;28;1898;-70
2021/01/17 13:17:31;;;;;;;;;;;;;;;;;;5052946;28;1316;-70
2021/01/17 13:19:56;;;;;;;;;;;;;;;;;;5053963;28;892;-71
2021/01/17 13:22:26;;;;;;;;;;;;;;;;;;5054214;28;905;-69
2021/01/17 13:24:51;;;;;;;;;;;;;;;;;;5062948;28;1470;-70
2021/01/17 13:27:16;;;;;;;;;;;;;;;;;;5056611;28;1554;-72
2021/01/17 13:29:42;;;;;;;;;;;;;;;;;;5053903;28;867;-72
2021/01/17 13:32:07;;;;;;;;;;;;;;;;;;5053493;28;3358;-69
2021/01/17 13:34:32;;;;;;;;;;;;;;;;;;5069806;28;1965;-71
2021/01/17 13:36:57;;;;;;;;;;;;;;;;;;5074163;28;786;-70
2021/01/17 13:39:22;;;;;;;;;;;;;;;;;;5072551;28;1604;-71
2021/01/17 13:41:51;;;;;;;;;;;;;;;;;;5072668;28;1640;-70
2021/01/17 13:44:16;;;;;;;;;;;;;;;;;;5072714;28;860;-69
2021/01/17 13:46:42;;;;;;;;;;;;;;;;;;5072494;28;2544;-72
2021/01/17 13:49:07;;;;;;;;;;;;;;;;;;5073989;28;888;-71
2021/01/17 13:51:32;;;;;;;;;;;;;;;;;;5073723;28;876;-71
2021/01/17 13:53:57;;;;;;;;;;;;;;;;;;5072944;28;1334;-70
2021/01/17 13:56:22;;;;;;;;;;;;;;;;;;5072659;28;1961;-69
2021/01/17 13:58:48;;;;;;;;;;;;;;;;;;5074006;28;1240;-69
2021/01/17 14:01:13;;;;;;;;;;;;;;;;;;5075546;28;1195;-71
2021/01/17 14:03:38;;;;;;;;;;;;;;;;;;5076010;28;1202;-71
2021/01/17 14:06:03;;;;;;;;;;;;;;;;;;5075921;28;1429;-69
2021/01/17 14:08:29;;;;;;;;;;;;;;;;;;5075447;28;1144;-71
2021/01/17 14:10:54;;;;;;;;;;;;;;;;;;5076711;28;849;-71
2021/01/17 14:13:20;;;;;;;;;;;;;;;;;;5077605;28;877;-70
2021/01/17 14:15:45;;;;;;;;;;;;;;;;;;5075619;28;1902;-71
2021/01/17 14:18:10;;;;;;;;;;;;;;;;;;5076126;28;1297;-72
2021/01/17 14:20:35;;;;;;;;;;;;;;;;;;5076490;28;936;-71
2021/01/17 14:23:00;;;;;;;;;;;;;;;;;;5076941;28;901;-72
2021/01/17 14:25:26;;;;;;;;;;;;;;;;;;5070790;28;3408;-73
2021/01/17 14:27:51;;;;;;;;;;;;;;;;;;5077031;28;801;-72
2021/01/17 14:30:17;;;;;;;;;;;;;;;;;;5076858;28;874;-72
2021/01/17 14:32:42;;;;;;;;;;;;;;;;;;5076680;28;1202;-72
2021/01/17 14:35:08;;;;;;;;;;;;;;;;;;5076776;28;1968;-71
2021/01/17 14:37:34;;;;;;;;;;;;;;;;;;5076657;28;1218;-72
2021/01/17 14:39:59;;;;;;;;;;;;;;;;;;5069711;28;1881;-73
2021/01/17 14:42:24;;;;;;;;;;;;;;;;;;5057107;28;957;-72
2021/01/17 14:44:49;;;;;;;;;;;;;;;;;;5069389;28;1573;-75
2021/01/17 14:47:15;;;;;;;;;;;;;;;;;;5075053;28;1662;-75
2021/01/17 14:49:40;;;;;;;;;;;;;;;;;;5072742;28;1959;-73
2021/01/17 14:52:06;;;;;;;;;;;;;;;;;;5069411;28;2541;-74
2021/01/17 14:54:31;;;;;;;;;;;;;;;;;;5066495;28;1965;-74
2021/01/17 14:56:56;;;;;;;;;;;;;;;;;;5076083;28;1983;-75
2021/01/17 14:59:25;;;;;;;;;;;;;;;;;;5074388;28;1938;-75
2021/01/17 15:01:53;;;;;;;;;;;;;;;;;;5075790;28;2029;-74
2021/01/17 15:04:18;;;;;;;;;;;;;;;;;;5074076;28;1507;-73
2021/01/17 15:06:43;;;;;;;;;;;;;;;;;;5073334;28;1436;-74
2021/01/17 15:09:10;;;;;;;;;;;;;;;;;;5074486;28;1143;-73
2021/01/17 15:11:36;;;;;;;;;;;;;;;;;;5075947;28;860;-72
2021/01/17 15:14:01;;;;;;;;;;;;;;;;;;5073329;28;1661;-71
2021/01/17 15:16:27;;;;;;;;;;;;;;;;;;5074407;28;1956;-69
2021/01/17 15:18:53;;;;;;;;;;;;;;;;;;5074948;28;1217;-70
2021/01/17 15:21:20;;;;;;;;;;;;;;;;;;5072947;28;1242;-71
2021/01/17 15:23:45;;;;;;;;;;;;;;;;;;5075541;28;1224;-71
2021/01/17 15:26:10;;;;;;;;;;;;;;;;;;5075924;28;1521;-72
2021/01/17 15:28:36;;;;;;;;;;;;;;;;;;5075735;28;924;-70
2021/01/17 15:31:01;;;;;;;;;;;;;;;;;;5051232;28;1417;-70
2021/01/17 15:33:28;;;;;;;;;;;;;;;;;;5062135;28;2600;-71
2021/01/17 15:35:53;;;;;;;;;;;;;;;;;;5072314;28;1973;-70
2021/01/17 15:38:18;;;;;;;;;;;;;;;;;;5064271;28;1923;-71
2021/01/17 15:40:43;;;;;;;;;;;;;;;;;;5064949;28;1718;-71
2021/01/17 15:43:09;;;;;;;;;;;;;;;;;;5064793;28;1570;-72
2021/01/17 15:45:34;;;;;;;;;;;;;;;;;;5065482;28;1503;-70
2021/01/17 15:47:59;;;;;;;;;;;;;;;;;;5063030;28;1406;-70
2021/01/17 15:50:24;;;;;;;;;;;;;;;;;;5070191;28;3325;-72
2021/01/17 15:52:50;;;;;;;;;;;;;;;;;;5074870;28;1249;-70
2021/01/17 15:55:15;;;;;;;;;;;;;;;;;;5075317;28;1897;-72
2021/01/17 15:57:40;;;;;;;;;;;;;;;;;;5075086;28;825;-71
2021/01/17 16:00:06;;;;;;;;;;;;;;;;;;5074996;28;963;-71
2021/01/17 16:02:32;;;;;;;;;;;;;;;;;;5073915;28;1097;-74
2021/01/17 16:04:58;;;;;;;;;;;;;;;;;;5075077;28;1266;-74
2021/01/17 16:07:23;;;;;;;;;;;;;;;;;;5074054;28;1468;-73
2021/01/17 16:09:48;;;;;;;;;;;;;;;;;;5073780;28;1436;-75
2021/01/17 16:12:13;;;;;;;;;;;;;;;;;;5075058;28;862;-73
2021/01/17 16:14:38;;;;;;;;;;;;;;;;;;5074787;28;1893;-74
2021/01/17 16:17:04;;;;;;;;;;;;;;;;;;5074650;28;870;-73
2021/01/17 16:19:29;;;;;;;;;;;;;;;;;;5073247;28;1301;-74
2021/01/17 16:21:55;;;;;;;;;;;;;;;;;;5074634;28;845;-73
2021/01/17 16:24:20;;;;;;;;;;;;;;;;;;5074388;28;837;-73
2021/01/17 16:26:45;;;;;;;;;;;;;;;;;;5074239;28;1310;-72
2021/01/17 16:29:11;;;;;;;;;;;;;;;;;;5073891;28;822;-73
2021/01/17 16:31:37;;;;;;;;;;;;;;;;;;5073139;28;806;-73
2021/01/17 16:34:03;;;;;;;;;;;;;;;;;;5072825;28;1454;-73
2021/01/17 16:36:28;;;;;;;;;;;;;;;;;;5073746;28;1910;-73
2021/01/17 16:38:53;;;;;;;;;;;;;;;;;;5073981;28;884;-72
2021/01/17 16:41:19;;;;;;;;;;;;;;;;;;5073864;28;932;-73
2021/01/17 16:43:44;;;;;;;;;;;;;;;;;;5073799;28;794;-73
2021/01/17 16:46:09;;;;;;;;;;;;;;;;;;5073618;28;1372;-71
2021/01/17 16:48:34;;;;;;;;;;;;;;;;;;5074204;28;940;-72
2021/01/17 16:51:00;;;;;;;;;;;;;;;;;;5073815;28;961;-73
2021/01/17 16:53:25;;;;;;;;;;;;;;;;;;5073965;28;876;-73
2021/01/17 16:55:50;;;;;;;;;;;;;;;;;;5073677;28;1961;-72
2021/01/17 16:58:15;;;;;;;;;;;;;;;;;;5073810;28;855;-74
2021/01/17 17:00:41;;;;;;;;;;;;;;;;;;5073764;28;810;-73
2021/01/17 17:03:07;;;;;;;;;;;;;;;;;;5073982;28;829;-74
2021/01/17 17:05:32;;;;;;;;;;;;;;;;;;5073768;28;1350;-73
2021/01/17 17:07:58;;;;;;;;;;;;;;;;;;5073854;28;859;-73
2021/01/17 17:10:24;;;;;;;;;;;;;;;;;;5072355;28;1218;-73